Time;durP1;ratioP1;P1;durP2;ratioP2;P2;SDS_P1;SDS_P2;PMS_P1;PMS_P2;Temp;Humidity;BMP_temperature;BMP_pressure;BME280_temperature;BME280_humidity;BME280_pressure;Samples;Min_cycle;Max_cycle;Signal;HPM_P1;HPM_P2
2023/01/21 00:01:33;;;;;;;;;;;;;;;3.49;79.03;100430.75;5112065;28;19935;-64
2023/01/21 00:03:58;;;;;;;;;;;;;;;3.48;79.80;100440.38;5094263;28;20380;-64
2023/01/21 00:06:24;;;;;;;;;;;;;;;3.50;79.84;100435.13;5093664;28;20480;-63
2023/01/21 00:08:49;;;;;;;;;;;;;;;3.48;80.23;100436.84;5093863;28;19951;-64
2023/01/21 00:11:14;;;;;;;;;;;;;;;3.47;79.93;100437.75;5095918;28;19950;-64
2023/01/21 00:13:40;;;;;;;;;;;;;;;3.48;80.24;100444.75;5093666;28;19935;-64
2023/01/21 00:16:06;;;;;;;;;;;;;;;3.48;79.82;100444.75;5093585;28;19930;-62
2023/01/21 00:18:32;;;;;;;;;;;;;;;3.43;79.74;100442.09;5094811;28;19963;-64
2023/01/21 00:20:57;;;;;;;;;;;;;;;3.40;79.34;100441.22;5093512;28;19940;-63
2023/01/21 00:23:22;;;;;;;;;;;;;;;3.43;79.05;100446.47;5100222;28;20393;-63
2023/01/21 00:25:47;;;;;;;;;;;;;;;3.43;78.16;100438.59;5113914;28;19928;-64
2023/01/21 00:28:13;;;;;;;;;;;;;;;3.41;78.50;100443.00;5112078;28;19924;-64
2023/01/21 00:30:40;;;;;;;;;;;;;;;3.45;79.16;100440.38;5111161;28;20461;-64
2023/01/21 00:33:05;;;;;;;;;;;;;;;3.43;78.63;100443.84;5100482;28;20012;-64
2023/01/21 00:35:30;;;;;;;;;;;;;;;3.44;78.92;100440.38;5097269;28;20076;-63
2023/01/21 00:37:56;;;;;;;;;;;;;;;3.44;78.71;100446.47;5093468;28;19928;-63
2023/01/21 00:40:21;;;;;;;;;;;;;;;3.44;78.74;100435.09;5092900;28;20029;-63
2023/01/21 00:42:46;;;;;;;;;;;;;;;3.47;78.88;100443.00;5077020;28;20283;-64
2023/01/21 00:45:12;;;;;;;;;;;;;;;3.44;78.48;100443.00;5091969;28;19929;-63
2023/01/21 00:47:37;;;;;;;;;;;;;;;3.44;78.43;100438.59;5095012;28;19974;-64
2023/01/21 00:50:03;;;;;;;;;;;;;;;3.45;78.81;100444.75;5092527;28;19963;-64
2023/01/21 00:52:28;;;;;;;;;;;;;;;3.46;78.50;100451.78;5093457;28;20287;-64
2023/01/21 00:54:53;;;;;;;;;;;;;;;3.43;78.12;100457.00;5111826;28;20280;-64
2023/01/21 00:57:19;;;;;;;;;;;;;;;3.46;77.93;100459.66;5113294;28;19934;-63
2023/01/21 00:59:44;;;;;;;;;;;;;;;3.45;77.39;100471.91;5104987;28;19943;-63
2023/01/21 01:02:09;;;;;;;;;;;;;;;3.38;77.20;100448.22;5113178;28;20016;-64
2023/01/21 01:04:35;;;;;;;;;;;;;;;3.42;76.25;100465.78;5097186;28;19954;-62
2023/01/21 01:07:00;;;;;;;;;;;;;;;3.41;76.01;100462.25;5091957;28;20402;-63
2023/01/21 01:09:25;;;;;;;;;;;;;;;3.43;75.48;100467.50;5093514;28;19941;-66
2023/01/21 01:11:51;;;;;;;;;;;;;;;3.46;75.86;100475.44;5091688;28;19953;-67
2023/01/21 01:14:16;;;;;;;;;;;;;;;3.44;75.27;100470.13;5093686;28;20388;-63
2023/01/21 01:16:42;;;;;;;;;;;;;;;3.43;75.64;100485.91;5091841;28;19960;-64
2023/01/21 01:19:07;;;;;;;;;;;;;;;3.41;74.75;100490.31;5091279;28;19930;-62
2023/01/21 01:21:33;;;;;;;;;;;;;;;3.42;75.27;100498.22;5108871;28;20442;-63
2023/01/21 01:24:01;;;;;;;;;;;;;;;3.38;75.04;100495.53;5112163;28;19975;-63
2023/01/21 01:26:27;;;;;;;;;;;;;;;3.39;75.19;100498.19;5102831;28;19946;-64
2023/01/21 01:28:52;;;;;;;;;;;;;;;3.38;75.48;100500.78;5091475;28;19932;-64
2023/01/21 01:31:18;;;;;;;;;;;;;;;3.35;75.63;100501.69;5091350;28;19961;-63
2023/01/21 01:33:44;;;;;;;;;;;;;;;3.33;75.95;100502.53;5091557;28;19996;-62
2023/01/21 01:36:11;;;;;;;;;;;;;;;3.29;75.56;100506.91;5093683;28;20465;-66
2023/01/21 01:38:36;;;;;;;;;;;;;;;3.24;76.50;100513.91;5092273;28;19928;-63
2023/01/21 01:41:02;;;;;;;;;;;;;;;3.20;77.09;100521.75;5094917;28;19942;-64
2023/01/21 01:43:47;;;;;;;;;;;;;;;2.85;77.33;100478.66;5112462;28;19935;-63
2023/01/21 01:46:13;;;;;;;;;;;;;;;3.03;78.03;100526.06;5110628;28;20530;-63
2023/01/21 01:48:39;;;;;;;;;;;;;;;2.98;79.04;100526.03;5109782;28;19972;-64
2023/01/21 01:51:06;;;;;;;;;;;;;;;2.91;78.44;100531.22;5111976;28;19947;-64
2023/01/21 01:53:32;;;;;;;;;;;;;;;2.89;78.94;100528.59;5102325;28;19941;-64
2023/01/21 01:55:58;;;;;;;;;;;;;;;2.84;78.76;100529.41;5091110;28;20746;-64
2023/01/21 01:58:23;;;;;;;;;;;;;;;2.83;79.61;100525.06;5092253;28;19974;-64
2023/01/21 02:00:49;;;;;;;;;;;;;;;2.76;79.35;100534.63;5104361;28;20394;-64
2023/01/21 02:05:59;;;;;;;;;;;;;;;2.62;79.98;100538.91;5091569;28;19964;-63
2023/01/21 02:08:25;;;;;;;;;;;;;;;2.55;80.73;100540.59;5093414;28;19940;-63
2023/01/21 02:10:52;;;;;;;;;;;;;;;2.50;81.16;100544.06;5091253;28;19925;-64
2023/01/21 02:13:18;;;;;;;;;;;;;;;2.42;80.88;100554.50;5091313;28;19925;-64
2023/01/21 02:15:56;;;;;;;;;;;;;;;2.35;82.04;100557.97;5091798;28;20400;-63
2023/01/21 02:18:21;;;;;;;;;;;;;;;2.28;81.29;100556.13;5071275;28;19927;-66
2023/01/21 02:20:55;;;;;;;;;;;;;;;2.21;82.06;100554.31;5075918;28;19931;-66
2023/01/21 02:23:41;;;;;;;;;;;;;;;2.13;83.23;100561.22;5071112;28;20017;-66
2023/01/21 02:26:21;;;;;;;;;;;;;;;2.08;83.25;100562.03;5070844;28;19929;-62
2023/01/21 02:28:56;;;;;;;;;;;;;;;2.03;83.94;100564.63;5107115;28;19977;-64
2023/01/21 02:31:29;;;;;;;;;;;;;;;2.01;84.48;100560.25;5111331;28;19951;-63
2023/01/21 02:34:09;;;;;;;;;;;;;;;1.90;84.64;100565.38;5093972;28;19977;-66
2023/01/21 02:36:47;;;;;;;;;;;;;;;1.90;84.29;100567.09;5098119;28;19933;-63
2023/01/21 02:39:25;;;;;;;;;;;;;;;1.86;85.71;100565.31;5111728;28;19931;-63
2023/01/21 02:41:56;;;;;;;;;;;;;;;1.80;85.17;100575.72;5106855;28;19977;-63
2023/01/21 02:44:36;;;;;;;;;;;;;;;1.76;85.82;100574.84;5091306;28;19938;-63
2023/01/21 02:47:07;;;;;;;;;;;;;;;1.75;85.65;100569.53;5091042;28;20306;-66
2023/01/21 02:49:41;;;;;;;;;;;;;;;1.66;85.73;100567.72;5093492;28;19962;-63
2023/01/21 02:52:06;;;;;;;;;;;;;;;1.57;86.33;100577.19;5091123;28;20442;-63
2023/01/21 02:54:37;;;;;;;;;;;;;;;1.52;86.95;100584.13;5093426;28;19977;-66
2023/01/21 02:57:04;;;;;;;;;;;;;;;1.48;87.11;100579.72;5093291;28;19946;-63
2023/01/21 02:59:30;;;;;;;;;;;;;;;1.47;86.36;100586.69;5090823;28;20012;-64
2023/01/21 03:02:05;;;;;;;;;;;;;;;1.45;86.70;100592.78;5102347;28;20036;-65
2023/01/21 03:04:50;;;;;;;;;;;;;;;1.43;87.54;100582.28;5096724;28;19991;-64
2023/01/21 03:07:40;;;;;;;;;;;;;;;1.42;87.81;100588.38;5091348;28;19962;-64
2023/01/21 03:10:09;;;;;;;;;;;;;;;1.38;87.07;100601.44;5096535;28;20304;-64
2023/01/21 03:12:52;;;;;;;;;;;;;;;1.34;87.95;100584.78;5093606;28;19964;-64
2023/01/21 03:18:15;;;;;;;;;;;;;;;1.26;89.10;100594.28;5095007;28;19940;-64
2023/01/21 03:20:50;;;;;;;;;;;;;;;1.21;88.84;100594.22;5097125;28;20296;-64
2023/01/21 03:23:19;;;;;;;;;;;;;;;1.19;88.54;100589.81;5094828;28;19929;-65
2023/01/21 03:25:46;;;;;;;;;;;;;;;1.16;88.01;100584.53;5096025;28;20032;-64
2023/01/21 03:28:13;;;;;;;;;;;;;;;1.14;89.21;100588.84;5094150;28;19934;-64
2023/01/21 03:30:40;;;;;;;;;;;;;;;1.13;89.60;100594.97;5099786;28;20032;-62
2023/01/21 03:33:06;;;;;;;;;;;;;;;1.10;90.32;100595.78;5093657;28;19938;-63
2023/01/21 03:35:34;;;;;;;;;;;;;;;1.08;89.83;100596.66;5097266;28;19927;-63
2023/01/21 03:38:19;;;;;;;;;;;;;;;1.02;90.34;100597.41;5093967;28;20294;-64
2023/01/21 03:40:48;;;;;;;;;;;;;;;0.94;90.16;100600.81;5096513;28;20402;-63
2023/01/21 03:43:13;;;;;;;;;;;;;;;0.89;90.72;100605.97;5095303;28;19933;-63
2023/01/21 03:45:46;;;;;;;;;;;;;;;0.86;90.79;100611.16;5094494;28;19943;-64
2023/01/21 03:48:32;;;;;;;;;;;;;;;0.84;91.64;100622.47;5096771;28;20059;-64
2023/01/21 03:51:11;;;;;;;;;;;;;;;0.91;93.92;100608.59;5076717;28;19975;-64
2023/01/21 03:53:36;;;;;;;;;;;;;;;0.95;93.45;100611.31;5102692;28;19940;-64
2023/01/21 03:56:03;;;;;;;;;;;;;;;0.94;92.62;100614.75;5104218;28;20426;-65
2023/01/21 03:58:28;;;;;;;;;;;;;;;0.92;93.00;100615.63;5094514;28;19938;-65
2023/01/21 04:00:53;;;;;;;;;;;;;;;0.91;93.95;100617.34;5110055;28;19939;-65
2023/01/21 04:03:19;;;;;;;;;;;;;;;0.93;93.24;100619.97;5093938;28;19939;-65
2023/01/21 04:05:44;;;;;;;;;;;;;;;0.88;94.16;100621.66;5093987;28;19952;-65
2023/01/21 04:08:09;;;;;;;;;;;;;;;0.82;93.93;100621.56;5096196;28;19935;-65
2023/01/21 04:10:35;;;;;;;;;;;;;;;0.75;94.10;100617.97;5091843;28;20437;-65
2023/01/21 04:13:00;;;;;;;;;;;;;;;0.71;94.57;100621.38;5095708;28;20040;-65
2023/01/21 04:15:25;;;;;;;;;;;;;;;0.70;94.96;100629.22;5093906;28;20402;-66
2023/01/21 04:17:50;;;;;;;;;;;;;;;0.64;95.17;100624.78;5093882;28;20007;-66
2023/01/21 04:20:16;;;;;;;;;;;;;;;0.61;95.45;100629.06;5095723;28;20369;-66
2023/01/21 04:22:41;;;;;;;;;;;;;;;0.61;95.71;100634.31;5092360;28;19953;-66
2023/01/21 04:25:07;;;;;;;;;;;;;;;0.58;96.03;100634.22;5092406;28;20272;-66
2023/01/21 04:27:32;;;;;;;;;;;;;;;0.57;96.27;100643.84;5092636;28;19928;-66
2023/01/21 04:29:57;;;;;;;;;;;;;;;0.56;95.69;100643.81;5111013;28;19959;-65
2023/01/21 04:32:22;;;;;;;;;;;;;;;0.55;96.72;100649.88;5112815;28;19959;-66
2023/01/21 04:34:48;;;;;;;;;;;;;;;0.52;96.33;100649.84;5101269;28;20692;-65
2023/01/21 04:37:13;;;;;;;;;;;;;;;0.52;97.61;100657.69;5093650;28;19942;-66
2023/01/21 04:39:38;;;;;;;;;;;;;;;0.52;97.82;100661.19;5093579;28;20006;-65
2023/01/21 04:42:04;;;;;;;;;;;;;;;0.52;98.16;100657.69;5110067;28;20308;-66
2023/01/21 04:44:29;;;;;;;;;;;;;;;0.54;97.71;100658.59;5113255;28;19937;-66
2023/01/21 04:46:54;;;;;;;;;;;;;;;0.53;98.37;100654.22;5113722;28;19931;-66
2023/01/21 04:49:19;;;;;;;;;;;;;;;0.49;98.37;100660.25;5096623;28;19962;-65
2023/01/21 04:51:45;;;;;;;;;;;;;;;0.44;98.63;100661.91;5092691;28;19954;-66
2023/01/21 04:54:10;;;;;;;;;;;;;;;0.43;99.25;100670.63;5095214;28;19929;-66
2023/01/21 04:56:35;;;;;;;;;;;;;;;0.40;98.92;100673.16;5093048;28;19931;-65
2023/01/21 04:59:01;;;;;;;;;;;;;;;0.42;99.88;100671.44;5093010;28;19926;-67
2023/01/21 05:01:26;;;;;;;;;;;;;;;0.43;99.98;100675.84;5094841;28;19952;-66
2023/01/21 05:03:51;;;;;;;;;;;;;;;0.45;100.00;100675.00;5092447;28;19944;-66
2023/01/21 05:06:16;;;;;;;;;;;;;;;0.48;100.00;100679.44;5091600;28;19946;-67
2023/01/21 05:08:42;;;;;;;;;;;;;;;0.51;99.75;100684.72;5109677;28;19987;-67
2023/01/21 05:11:08;;;;;;;;;;;;;;;0.49;99.74;100681.19;5083342;28;19957;-67
2023/01/21 05:13:33;;;;;;;;;;;;;;;0.50;100.00;100682.94;5092290;28;19935;-67
2023/01/21 05:16:02;;;;;;;;;;;;;;;0.54;100.00;100684.78;5093277;28;19944;-67
2023/01/21 05:18:27;;;;;;;;;;;;;;;0.61;100.00;100681.41;5091588;28;19930;-68
2023/01/21 05:20:54;;;;;;;;;;;;;;;0.68;100.00;100684.16;5092570;28;20457;-66
2023/01/21 05:23:19;;;;;;;;;;;;;;;0.74;100.00;100683.38;5094807;28;19936;-67
2023/01/21 05:25:47;;;;;;;;;;;;;;;0.81;100.00;100690.47;5092603;28;20402;-67
2023/01/21 05:28:12;;;;;;;;;;;;;;;0.83;100.00;100691.38;5092369;28;20419;-67
2023/01/21 05:30:37;;;;;;;;;;;;;;;0.88;100.00;100698.47;5091983;28;19957;-66
2023/01/21 05:33:03;;;;;;;;;;;;;;;0.92;100.00;100691.56;5094710;28;20664;-66
2023/01/21 05:35:28;;;;;;;;;;;;;;;0.96;100.00;100696.84;5092322;28;20023;-66
2023/01/21 05:37:53;;;;;;;;;;;;;;;1.03;100.00;100705.69;5091974;28;19931;-67
2023/01/21 05:40:19;;;;;;;;;;;;;;;1.07;100.00;100702.28;5091995;28;19943;-66
2023/01/21 05:42:44;;;;;;;;;;;;;;;1.11;100.00;100706.69;5102719;28;20445;-68
2023/01/21 05:45:13;;;;;;;;;;;;;;;1.14;100.00;100707.63;5112442;28;19933;-67
2023/01/21 05:47:38;;;;;;;;;;;;;;;1.17;100.00;100709.44;5108119;28;19936;-67
2023/01/21 05:50:04;;;;;;;;;;;;;;;1.17;100.00;100712.06;5112340;28;19960;-67
2023/01/21 05:52:29;;;;;;;;;;;;;;;1.17;100.00;100722.53;5109837;28;19953;-67
2023/01/21 05:54:54;;;;;;;;;;;;;;;1.16;100.00;100723.38;5093716;28;20039;-66
2023/01/21 05:57:20;;;;;;;;;;;;;;;1.10;100.00;100728.53;5092010;28;19931;-66
2023/01/21 05:59:45;;;;;;;;;;;;;;;1.06;100.00;100729.31;5094241;28;19937;-66
2023/01/21 06:02:10;;;;;;;;;;;;;;;0.99;100.00;100727.44;5093809;28;19930;-66
2023/01/21 06:04:35;;;;;;;;;;;;;;;0.96;100.00;100727.38;5091855;28;20032;-67
2023/01/21 06:07:01;;;;;;;;;;;;;;;0.93;100.00;100732.59;5094490;28;19987;-66
2023/01/21 06:09:26;;;;;;;;;;;;;;;0.91;100.00;100739.53;5112007;28;19927;-66
2023/01/21 06:11:51;;;;;;;;;;;;;;;0.85;100.00;100735.09;5092130;28;19995;-66
2023/01/21 06:14:16;;;;;;;;;;;;;;;0.83;100.00;100742.03;5092441;28;19926;-66
2023/01/21 06:16:42;;;;;;;;;;;;;;;0.77;100.00;100733.19;5099637;28;19933;-66
2023/01/21 06:19:07;;;;;;;;;;;;;;;0.72;100.00;100743.56;5098702;28;19935;-66
2023/01/21 06:21:32;;;;;;;;;;;;;;;0.65;100.00;100740.81;5092420;28;20417;-66
2023/01/21 06:23:59;;;;;;;;;;;;;;;0.60;100.00;100750.28;5092223;28;20018;-65
2023/01/21 06:26:24;;;;;;;;;;;;;;;0.53;100.00;100745.81;5094615;28;19955;-65
2023/01/21 06:28:49;;;;;;;;;;;;;;;0.50;100.00;100756.22;5093979;28;20371;-65
2023/01/21 06:31:15;;;;;;;;;;;;;;;0.48;100.00;100757.94;5097284;28;19950;-65
2023/01/21 06:33:40;;;;;;;;;;;;;;;0.45;100.00;100757.84;5111824;28;19977;-65
2023/01/21 06:36:05;;;;;;;;;;;;;;;0.45;100.00;100768.31;5095807;28;19929;-63
2023/01/21 06:38:34;;;;;;;;;;;;;;;0.41;100.00;100762.19;5107841;28;19973;-65
2023/01/21 06:41:00;;;;;;;;;;;;;;;0.44;100.00;100769.19;5111969;28;20384;-67
2023/01/21 06:43:25;;;;;;;;;;;;;;;0.49;100.00;100778.00;5106359;28;19935;-65
2023/01/21 06:45:50;;;;;;;;;;;;;;;0.48;99.40;100781.50;5095215;28;19937;-65
2023/01/21 06:48:15;;;;;;;;;;;;;;;0.49;98.71;100793.72;5094183;28;20436;-65
2023/01/21 06:50:41;;;;;;;;;;;;;;;0.54;97.81;100789.44;5113111;28;19932;-65
2023/01/21 06:53:06;;;;;;;;;;;;;;;0.58;97.34;100792.16;5104822;28;19956;-65
2023/01/21 06:55:31;;;;;;;;;;;;;;;0.60;96.30;100797.41;5094853;28;19927;-66
2023/01/21 06:57:56;;;;;;;;;;;;;;;0.57;95.95;100797.34;5095569;28;19982;-65
2023/01/21 07:00:22;;;;;;;;;;;;;;;0.55;96.83;100801.66;5110245;28;19938;-65
2023/01/21 07:02:47;;;;;;;;;;;;;;;0.57;96.56;100807.81;5075116;28;20277;-65
2023/01/21 07:05:13;;;;;;;;;;;;;;;0.56;97.43;100808.69;5106697;28;19995;-65
2023/01/21 07:07:39;;;;;;;;;;;;;;;0.58;97.22;100820.03;5095309;28;19927;-65
2023/01/21 07:10:04;;;;;;;;;;;;;;;0.60;97.72;100827.09;5097183;28;19936;-65
2023/01/21 07:12:30;;;;;;;;;;;;;;;0.60;98.20;100814.00;5095092;28;19946;-64
2023/01/21 07:14:55;;;;;;;;;;;;;;;0.61;97.96;100825.38;5092417;28;19940;-65
2023/01/21 07:17:21;;;;;;;;;;;;;;;0.61;98.40;100823.59;5107589;28;19982;-65
2023/01/21 07:19:47;;;;;;;;;;;;;;;0.59;98.19;100827.06;5113596;28;19932;-65
2023/01/21 07:22:12;;;;;;;;;;;;;;;0.59;98.99;100833.19;5108028;28;20514;-65
2023/01/21 07:24:37;;;;;;;;;;;;;;;0.58;99.67;100843.59;5094788;28;19928;-65
2023/01/21 07:27:04;;;;;;;;;;;;;;;0.64;99.29;100843.75;5094893;28;20401;-64
2023/01/21 07:29:30;;;;;;;;;;;;;;;0.58;99.03;100844.50;5096710;28;19979;-65
2023/01/21 07:31:55;;;;;;;;;;;;;;;0.63;99.04;100847.19;5094520;28;19988;-65
2023/01/21 07:34:20;;;;;;;;;;;;;;;0.64;99.16;100856.84;5094592;28;19925;-65
2023/01/21 07:36:46;;;;;;;;;;;;;;;0.68;100.00;100867.38;5094763;28;19936;-65
2023/01/21 07:39:11;;;;;;;;;;;;;;;0.68;99.45;100861.25;5113854;28;19980;-65
2023/01/21 07:41:36;;;;;;;;;;;;;;;0.73;99.39;100864.84;5099223;28;20030;-65
2023/01/21 07:44:01;;;;;;;;;;;;;;;0.74;99.51;100861.41;5096176;28;19983;-65
2023/01/21 07:46:27;;;;;;;;;;;;;;;0.79;99.13;100872.84;5094526;28;20700;-65
2023/01/21 07:48:52;;;;;;;;;;;;;;;0.82;98.98;100875.53;5094363;28;19958;-65
2023/01/21 07:51:18;;;;;;;;;;;;;;;0.88;99.40;100878.25;5094178;28;19943;-65
2023/01/21 07:53:43;;;;;;;;;;;;;;;0.89;99.01;100885.28;5095611;28;19937;-65
2023/01/21 07:56:09;;;;;;;;;;;;;;;0.83;98.33;100880.78;5094283;28;20309;-65
2023/01/21 07:58:34;;;;;;;;;;;;;;;0.93;98.44;100881.84;5095291;28;19930;-65
2023/01/21 08:01:01;;;;;;;;;;;;;;;1.01;98.91;100882.88;5086681;28;19929;-66
2023/01/21 08:03:27;;;;;;;;;;;;;;;0.99;97.91;100890.72;5091922;28;19934;-65
2023/01/21 08:05:52;;;;;;;;;;;;;;;1.08;96.65;100890.00;5093420;28;19943;-66
2023/01/21 08:08:17;;;;;;;;;;;;;;;1.19;97.00;100891.09;5095958;28;19935;-66
2023/01/21 08:10:43;;;;;;;;;;;;;;;1.38;96.90;100893.22;5093783;28;19935;-66
2023/01/21 08:13:08;;;;;;;;;;;;;;;1.64;95.99;100889.28;5093786;28;20410;-66
2023/01/21 08:15:34;;;;;;;;;;;;;;;1.79;94.71;100899.16;5093853;28;19976;-66
2023/01/21 08:17:59;;;;;;;;;;;;;;;1.98;93.08;100896.84;5096247;28;19936;-66
2023/01/21 08:20:24;;;;;;;;;;;;;;;2.06;91.83;100900.47;5093632;28;19930;-66
2023/01/21 08:22:49;;;;;;;;;;;;;;;2.26;90.22;100904.28;5093788;28;19922;-65
2023/01/21 08:25:15;;;;;;;;;;;;;;;2.33;89.32;100900.00;5094575;28;19971;-66
2023/01/21 08:27:40;;;;;;;;;;;;;;;2.31;87.99;100902.59;5094800;28;20390;-66
2023/01/21 08:30:06;;;;;;;;;;;;;;;2.40;87.75;100908.00;5093109;28;19956;-64
2023/01/21 08:32:31;;;;;;;;;;;;;;;2.91;88.88;100904.28;5095654;28;20092;-66
2023/01/21 08:34:56;;;;;;;;;;;;;;;3.06;82.66;100910.63;5093285;28;20411;-65
2023/01/21 08:37:21;;;;;;;;;;;;;;;3.14;82.31;100915.94;5093644;28;19943;-66
2023/01/21 08:39:47;;;;;;;;;;;;;;;3.11;81.88;100911.56;5093542;28;20005;-65
2023/01/21 08:42:12;;;;;;;;;;;;;;;3.18;81.28;100917.75;5112979;28;19930;-66
2023/01/21 08:44:37;;;;;;;;;;;;;;;3.19;82.06;100924.78;5113591;28;19927;-66
2023/01/21 08:47:03;;;;;;;;;;;;;;;3.63;81.96;100934.00;5095879;28;20051;-65
2023/01/21 08:49:28;;;;;;;;;;;;;;;3.80;78.61;100932.44;5088845;28;19963;-66
2023/01/21 08:51:53;;;;;;;;;;;;;;;4.35;79.00;100924.09;5093110;28;20015;-65
2023/01/21 08:54:18;;;;;;;;;;;;;;;4.35;75.58;100924.09;5091402;28;20043;-65
2023/01/21 08:56:44;;;;;;;;;;;;;;;4.44;75.62;100924.16;5075032;28;19935;-65
2023/01/21 08:59:09;;;;;;;;;;;;;;;4.37;75.39;100932.00;5072708;28;20049;-63
2023/01/21 09:01:39;;;;;;;;;;;;;;;4.52;75.01;100932.97;5080524;28;20449;-64
2023/01/21 09:04:04;;;;;;;;;;;;;;;4.56;72.16;100934.78;5081263;28;19933;-65
2023/01/21 09:06:30;;;;;;;;;;;;;;;4.39;74.75;100936.41;5072447;28;19964;-65
2023/01/21 09:08:55;;;;;;;;;;;;;;;5.00;70.09;100943.78;5073911;28;19939;-65
2023/01/21 09:11:21;;;;;;;;;;;;;;;5.45;69.02;100947.47;5072730;28;20062;-65
2023/01/21 09:13:46;;;;;;;;;;;;;;;5.80;67.64;100935.25;5074556;28;19988;-65
2023/01/21 09:16:13;;;;;;;;;;;;;;;5.91;65.60;100939.69;5071453;28;19949;-65
2023/01/21 09:18:38;;;;;;;;;;;;;;;5.71;64.46;100943.13;5073422;28;19969;-65
2023/01/21 09:21:04;;;;;;;;;;;;;;;5.29;65.28;100941.25;5072518;28;19971;-65
2023/01/21 09:23:33;;;;;;;;;;;;;;;4.90;67.37;100957.81;5072539;28;19937;-65
2023/01/21 09:26:01;;;;;;;;;;;;;;;5.19;69.32;100964.09;5072153;28;19932;-65
2023/01/21 09:28:26;;;;;;;;;;;;;;;4.92;66.81;100960.44;5074063;28;19943;-64
2023/01/21 09:30:58;;;;;;;;;;;;;;;5.65;67.74;100964.25;5071845;28;19931;-65
2023/01/21 09:33:23;;;;;;;;;;;;;;;6.97;65.00;100964.22;5071520;28;19939;-64
2023/01/21 09:35:55;;;;;;;;;;;;;;;7.17;58.39;100969.44;5071855;28;20452;-64
2023/01/21 09:38:21;;;;;;;;;;;;;;;6.11;59.93;100974.03;5080729;28;20422;-64
2023/01/21 09:40:46;;;;;;;;;;;;;;;5.47;63.59;100987.94;5090055;28;20011;-64
2023/01/21 09:43:22;;;;;;;;;;;;;;;4.96;66.04;100989.47;5092322;28;19968;-64
2023/01/21 09:45:49;;;;;;;;;;;;;;;5.23;66.95;100989.59;5091368;28;20492;-63
2023/01/21 09:48:24;;;;;;;;;;;;;;;5.79;66.07;100991.53;5074628;28;19932;-64
2023/01/21 09:50:50;;;;;;;;;;;;;;;5.69;62.56;101000.31;5112346;28;20397;-63
2023/01/21 09:53:26;;;;;;;;;;;;;;;5.90;63.04;101005.66;5111734;28;20298;-63
2023/01/21 09:55:52;;;;;;;;;;;;;;;5.85;62.38;101004.81;5112080;28;19935;-63
2023/01/21 09:58:17;;;;;;;;;;;;;;;6.33;62.78;100999.53;5096607;28;19933;-63
2023/01/21 10:00:53;;;;;;;;;;;;;;;6.89;58.84;101000.38;5091511;28;19940;-64
2023/01/21 10:03:32;;;;;;;;;;;;;;;7.40;57.36;101009.91;5092603;28;19925;-64
2023/01/21 10:06:15;;;;;;;;;;;;;;;7.52;55.28;100999.28;5091590;28;19955;-64
2023/01/21 10:08:57;;;;;;;;;;;;;;;7.95;54.45;100992.88;5091890;28;19931;-63
2023/01/21 10:11:30;;;;;;;;;;;;;;;7.38;54.48;101001.97;5111320;28;19959;-63
2023/01/21 10:13:58;;;;;;;;;;;;;;;6.72;56.20;101007.47;5111322;28;19932;-63
2023/01/21 10:16:38;;;;;;;;;;;;;;;6.03;58.52;101021.53;5111076;28;20048;-63
2023/01/21 10:19:04;;;;;;;;;;;;;;;5.43;62.00;101007.25;5098520;28;20456;-63
2023/01/21 10:21:47;;;;;;;;;;;;;;;5.21;63.72;101012.44;5090743;28;20019;-63
2023/01/21 10:24:15;;;;;;;;;;;;;;;5.07;65.00;101011.47;5091327;28;19927;-63
2023/01/21 10:26:43;;;;;;;;;;;;;;;4.74;65.88;101011.31;5090639;28;19931;-62
2023/01/21 10:29:12;;;;;;;;;;;;;;;4.34;68.12;101010.97;5093677;28;20030;-63
2023/01/21 10:31:41;;;;;;;;;;;;;;;4.23;68.84;101003.00;5091241;28;19951;-64
2023/01/21 10:34:13;;;;;;;;;;;;;;;4.02;69.77;101002.78;5091359;28;20045;-63
2023/01/21 10:36:39;;;;;;;;;;;;;;;4.19;69.95;101003.84;5093833;28;19929;-63
2023/01/21 10:39:09;;;;;;;;;;;;;;;4.33;70.34;101001.31;5111630;28;20411;-64
2023/01/21 10:41:37;;;;;;;;;;;;;;;5.02;68.97;101005.34;5109285;28;19935;-63
2023/01/21 10:44:16;;;;;;;;;;;;;;;5.98;67.68;100999.53;5091141;28;20322;-63
2023/01/21 10:47:00;;;;;;;;;;;;;;;6.54;62.50;101000.44;5090501;28;20429;-63
2023/01/21 10:49:44;;;;;;;;;;;;;;;6.37;62.54;100988.13;5092312;28;20439;-63
2023/01/21 10:52:14;;;;;;;;;;;;;;;6.19;62.77;100988.13;5086831;28;20027;-64
2023/01/21 10:54:40;;;;;;;;;;;;;;;6.55;62.49;100990.75;5085360;28;20448;-64
2023/01/21 10:57:26;;;;;;;;;;;;;;;6.68;60.51;100987.19;5091074;28;19932;-64
2023/01/21 10:59:52;;;;;;;;;;;;;;;6.35;60.62;100992.50;5090230;28;20027;-64
2023/01/21 11:02:17;;;;;;;;;;;;;;;6.02;62.01;100989.84;5092022;28;20029;-64
2023/01/21 11:04:43;;;;;;;;;;;;;;;5.74;63.21;100998.56;5090067;28;19952;-63
2023/01/21 11:07:11;;;;;;;;;;;;;;;5.52;64.90;100996.75;5091696;28;19932;-64
2023/01/21 11:09:38;;;;;;;;;;;;;;;5.09;65.20;100996.56;5089199;28;19932;-63
2023/01/21 11:12:04;;;;;;;;;;;;;;;4.66;67.30;100997.16;5091799;28;20052;-63
2023/01/21 11:14:29;;;;;;;;;;;;;;;4.58;69.13;100990.13;5090566;28;20021;-63
2023/01/21 11:16:55;;;;;;;;;;;;;;;4.47;70.60;100986.50;5095319;28;19933;-64
2023/01/21 11:19:22;;;;;;;;;;;;;;;4.09;73.72;100983.56;5090719;28;19934;-63
2023/01/21 11:22:04;;;;;;;;;;;;;;;3.91;75.16;100978.13;5090968;28;20025;-63
2023/01/21 11:24:31;;;;;;;;;;;;;;;3.91;75.74;100986.91;5082852;28;20305;-64
2023/01/21 11:27:00;;;;;;;;;;;;;;;3.80;76.97;100980.69;5090874;28;19963;-63
2023/01/21 11:29:26;;;;;;;;;;;;;;;3.73;78.25;100981.47;5093261;28;19936;-63
2023/01/21 11:32:09;;;;;;;;;;;;;;;3.64;78.57;100985.75;5100197;28;20360;-63
2023/01/21 11:34:35;;;;;;;;;;;;;;;3.52;79.47;100983.00;5094132;28;20471;-64
2023/01/21 11:37:01;;;;;;;;;;;;;;;3.39;80.38;100989.88;5094712;28;20036;-63
2023/01/21 11:39:28;;;;;;;;;;;;;;;3.29;80.97;100995.00;5095180;28;19946;-63
2023/01/21 11:41:54;;;;;;;;;;;;;;;3.12;81.62;100999.16;5101877;28;20391;-63
2023/01/21 11:44:20;;;;;;;;;;;;;;;3.12;82.06;100993.88;5095515;28;19951;-61
2023/01/21 11:46:46;;;;;;;;;;;;;;;2.87;81.32;100997.06;5096812;28;19984;-61
2023/01/21 11:49:14;;;;;;;;;;;;;;;2.99;81.30;100994.59;5094851;28;19958;-61
2023/01/21 11:51:40;;;;;;;;;;;;;;;3.03;81.20;100980.66;5095182;28;19952;-61
2023/01/21 11:54:05;;;;;;;;;;;;;;;3.19;81.05;100977.34;5094170;28;19924;-61
2023/01/21 11:56:30;;;;;;;;;;;;;;;3.39;79.46;100975.84;5096222;28;19942;-61
2023/01/21 11:58:56;;;;;;;;;;;;;;;3.43;79.16;100985.50;5094088;28;19935;-61
2023/01/21 12:01:21;;;;;;;;;;;;;;;3.47;78.43;100984.69;5095978;28;20300;-61
2023/01/21 12:03:59;;;;;;;;;;;;;;;3.45;78.51;100976.78;5093431;28;19935;-61
2023/01/21 12:06:26;;;;;;;;;;;;;;;3.42;77.71;100970.59;5093817;28;19976;-62
2023/01/21 12:08:53;;;;;;;;;;;;;;;3.47;78.06;100979.44;5094516;28;19938;-61
2023/01/21 12:11:21;;;;;;;;;;;;;;;3.54;77.69;100981.28;5094901;28;19952;-61
2023/01/21 12:13:46;;;;;;;;;;;;;;;3.55;77.44;100977.75;5105093;28;19937;-61
2023/01/21 12:16:11;;;;;;;;;;;;;;;3.44;76.82;100964.47;5115583;28;20387;-61
2023/01/21 12:18:58;;;;;;;;;;;;;;;3.40;79.23;100972.31;5113038;28;20293;-61
2023/01/21 12:21:35;;;;;;;;;;;;;;;3.45;79.60;100960.13;5089575;28;20074;-62
2023/01/21 12:24:10;;;;;;;;;;;;;;;3.51;79.06;100965.47;5095206;28;20021;-61
2023/01/21 12:26:40;;;;;;;;;;;;;;;3.64;78.76;100968.22;5112078;28;20376;-62
2023/01/21 12:29:08;;;;;;;;;;;;;;;3.42;77.55;100970.59;5115687;28;20452;-62
2023/01/21 12:31:42;;;;;;;;;;;;;;;3.24;78.69;100967.75;5110872;28;19960;-61
2023/01/21 12:34:16;;;;;;;;;;;;;;;3.23;79.76;100971.28;5115276;28;19928;-61
2023/01/21 12:36:45;;;;;;;;;;;;;;;3.28;79.17;100966.94;5103655;28;19946;-61
2023/01/21 12:39:17;;;;;;;;;;;;;;;3.30;79.55;100967.81;5094566;28;19939;-61
2023/01/21 12:41:45;;;;;;;;;;;;;;;3.29;80.07;100973.97;5093302;28;19994;-61
2023/01/21 12:44:10;;;;;;;;;;;;;;;3.16;79.82;100964.16;5096153;28;20343;-61
2023/01/21 12:46:39;;;;;;;;;;;;;;;3.18;80.52;100970.34;5094204;28;19934;-61
2023/01/21 12:49:19;;;;;;;;;;;;;;;3.10;80.52;100972.00;5097162;28;20729;-61
2023/01/21 12:51:51;;;;;;;;;;;;;;;3.07;80.98;100977.19;5113941;28;19951;-61
2023/01/21 12:54:22;;;;;;;;;;;;;;;3.12;81.59;100971.13;5114035;28;19925;-61